Time;durP1;ratioP1;P1;durP2;ratioP2;P2;SDS_P1;SDS_P2;PMS_P1;PMS_P2;Temp;Humidity;BMP_temperature;BMP_pressure;BME280_temperature;BME280_humidity;BME280_pressure;Samples;Min_cycle;Max_cycle;Signal;HPM_P1;HPM_P2
2023/09/06 00:00:30;;;;;;;5.80;4.30;;;;;;;17.22;100.00;95635.47;5027878;28;20244;-73
2023/09/06 00:02:56;;;;;;;6.07;4.60;;;;;;;17.34;100.00;95636.31;5013040;28;20328;-73
2023/09/06 00:05:21;;;;;;;10.83;4.57;;;;;;;17.34;100.00;95638.16;5006717;28;20313;-73
2023/09/06 00:08:02;;;;;;;7.23;4.67;;;;;;;17.32;100.00;95640.22;4995768;28;20237;-72
2023/09/06 00:10:28;;;;;;;6.73;4.83;;;;;;;17.08;100.00;95631.38;4997354;28;20775;-73
2023/09/06 00:12:53;;;;;;;8.37;4.90;;;;;;;17.17;100.00;95626.59;5010431;28;20291;-72
2023/09/06 00:15:19;;;;;;;8.07;4.93;;;;;;;17.03;100.00;95628.56;5006204;28;20241;-72
2023/09/06 00:17:51;;;;;;;7.73;4.80;;;;;;;16.88;100.00;95620.22;4997674;28;20221;-73
2023/09/06 00:20:26;;;;;;;6.73;4.63;;;;;;;16.98;100.00;95615.19;5001424;28;20244;-73
2023/09/06 00:22:56;;;;;;;7.47;5.10;;;;;;;17.02;100.00;95621.69;5000520;28;20363;-73
2023/09/06 00:25:21;;;;;;;7.07;4.97;;;;;;;17.01;100.00;95629.81;4984573;28;20262;-72
2023/09/06 00:27:48;;;;;;;6.17;4.73;;;;;;;16.83;100.00;95635.94;5032845;28;20237;-73
2023/09/06 00:30:14;;;;;;;6.97;4.90;;;;;;;16.96;100.00;95629.69;5025684;28;20279;-73
2023/09/06 00:32:39;;;;;;;7.23;4.97;;;;;;;16.99;100.00;95630.06;5019093;28;20338;-72
2023/09/06 00:35:06;;;;;;;6.63;5.03;;;;;;;17.11;100.00;95623.00;5008739;28;20230;-73
2023/09/06 00:37:37;;;;;;;8.00;5.10;;;;;;;17.03;100.00;95627.78;4993837;28;20225;-73
2023/09/06 00:40:18;;;;;;;8.33;4.80;;;;;;;16.93;100.00;95624.84;5026782;28;20241;-72
2023/09/06 00:43:00;;;;;;;8.10;5.20;;;;;;;17.00;100.00;95618.47;4988105;28;20715;-72
2023/09/06 00:45:27;;;;;;;6.77;5.03;;;;;;;16.99;100.00;95622.13;5011415;28;20241;-72
2023/09/06 00:47:55;;;;;;;7.10;4.80;;;;;;;17.05;100.00;95618.56;5007314;28;20229;-72
2023/09/06 00:50:20;;;;;;;7.10;5.10;;;;;;;17.02;100.00;95613.75;5042242;28;20234;-72
2023/09/06 00:52:46;;;;;;;9.70;5.50;;;;;;;16.95;100.00;95617.50;5008896;28;20264;-73
2023/09/06 00:55:12;;;;;;;9.10;5.70;;;;;;;16.97;100.00;95610.16;5018733;28;20329;-73
2023/09/06 00:57:38;;;;;;;6.67;5.27;;;;;;;17.05;100.00;95597.41;5009523;28;20238;-74
2023/09/06 01:00:46;;;;;;;7.67;5.30;;;;;;;16.92;100.00;95599.41;5006671;28;20268;-72
2023/09/06 01:02:53;;;;;;;7.43;5.40;;;;;;;16.94;100.00;95603.47;5014754;28;20237;-73
2023/09/06 01:05:22;;;;;;;7.40;5.60;;;;;;;16.98;100.00;95598.56;5014381;28;20237;-73
2023/09/06 01:07:51;;;;;;;8.17;5.30;;;;;;;16.93;100.00;95601.06;5004334;28;20816;-73
2023/09/06 01:10:17;;;;;;;10.57;5.40;;;;;;;17.05;100.00;95605.34;5001846;28;21132;-72
2023/09/06 01:12:42;;;;;;;8.83;5.33;;;;;;;17.09;100.00;95603.88;5003517;28;20252;-73
2023/09/06 01:15:10;;;;;;;7.87;5.17;;;;;;;16.88;100.00;95606.19;5009051;28;20225;-74
2023/09/06 01:17:36;;;;;;;6.80;5.10;;;;;;;16.91;100.00;95601.25;5011303;28;20261;-74
2023/09/06 01:20:19;;;;;;;7.97;5.40;;;;;;;17.02;100.00;95608.47;5006227;28;20692;-71
2023/09/06 01:23:06;;;;;;;7.03;5.30;;;;;;;17.05;100.00;95597.41;4990094;28;20229;-72
2023/09/06 01:25:32;;;;;;;8.77;5.47;;;;;;;16.93;100.00;95606.34;4999720;28;20246;-72
2023/09/06 01:27:57;;;;;;;8.17;5.70;;;;;;;16.88;100.00;95600.91;4993910;28;20236;-72
2023/09/06 01:30:29;;;;;;;9.93;5.30;;;;;;;16.83;100.00;95602.38;4998750;28;20234;-72
2023/09/06 01:32:54;;;;;;;7.60;5.30;;;;;;;16.99;100.00;95603.59;5010888;28;20902;-72
2023/09/06 01:35:20;;;;;;;8.73;5.40;;;;;;;17.06;100.00;95609.63;5000781;28;20232;-74
2023/09/06 01:37:50;;;;;;;7.70;5.37;;;;;;;17.06;100.00;95606.16;4984090;28;20316;-73
2023/09/06 01:40:17;;;;;;;8.07;5.33;;;;;;;17.04;100.00;95606.41;5017102;28;20247;-72
2023/09/06 01:42:43;;;;;;;7.80;5.90;;;;;;;17.17;100.00;95608.84;5001440;28;20280;-72
2023/09/06 01:45:09;;;;;;;8.97;5.90;;;;;;;17.23;100.00;95602.69;5027580;28;20230;-72
2023/09/06 01:47:35;;;;;;;7.43;5.87;;;;;;;16.93;100.00;95601.06;5020639;28;20240;-73
2023/09/06 01:50:00;;;;;;;8.30;5.77;;;;;;;17.22;100.00;95594.97;5007436;28;20246;-72
2023/09/06 01:52:26;;;;;;;8.03;5.70;;;;;;;17.12;100.00;95608.75;5020044;28;20241;-72
2023/09/06 01:54:51;;;;;;;12.77;5.77;;;;;;;17.09;100.00;95592.50;4988642;28;20283;-72
2023/09/06 01:57:50;;;;;;;8.30;5.67;;;;;;;17.01;100.00;95596.25;5017705;28;20230;-72
2023/09/06 02:02:46;;;;;;;10.27;5.93;;;;;;;17.03;100.00;95596.06;5008399;28;20765;-72
2023/09/06 02:05:12;;;;;;;7.70;5.97;;;;;;;16.97;100.00;95599.56;5018575;28;20715;-73
2023/09/06 02:07:38;;;;;;;9.00;5.63;;;;;;;16.94;100.00;95594.72;4993653;28;20222;-72
2023/09/06 02:10:04;;;;;;;7.70;5.90;;;;;;;17.03;100.00;95599.47;5024076;28;20240;-72
2023/09/06 02:12:30;;;;;;;8.80;6.20;;;;;;;17.04;100.00;95597.66;4990583;28;20316;-72
2023/09/06 02:14:56;;;;;;;8.17;6.07;;;;;;;17.03;100.00;95594.19;5018955;28;20320;-72
2023/09/06 02:17:53;;;;;;;9.30;5.97;;;;;;;17.00;100.00;95588.56;5008030;28;20237;-72
2023/09/06 02:20:26;;;;;;;9.97;6.10;;;;;;;16.91;100.00;95592.53;5023727;28;20250;-79
2023/09/06 02:25:44;;;;;;;11.17;6.03;;;;;;;16.87;100.00;95591.34;5021930;28;20734;-73
2023/09/06 02:28:10;;;;;;;13.00;6.27;;;;;;;16.90;100.00;95590.91;4995372;28;20387;-75
2023/09/06 02:30:39;;;;;;;9.67;6.37;;;;;;;16.87;100.00;95602.72;4994717;28;20729;-73
2023/09/06 02:33:04;;;;;;;9.00;6.23;;;;;;;16.93;100.00;95604.50;5003774;28;20323;-73
2023/09/06 02:35:30;;;;;;;7.50;5.73;;;;;;;16.98;100.00;95601.97;4989847;28;20675;-73
2023/09/06 02:40:52;;;;;;;8.57;6.13;;;;;;;16.97;100.00;95600.38;4994763;28;21049;-73
2023/09/06 02:43:17;;;;;;;10.80;6.30;;;;;;;16.88;100.00;95596.44;5005227;28;20222;-73
2023/09/06 02:45:49;;;;;;;11.87;5.90;;;;;;;16.94;100.00;95595.53;5013164;28;20241;-73
2023/09/06 02:48:16;;;;;;;9.90;6.03;;;;;;;16.84;100.00;95595.22;5004730;28;20936;-73
2023/09/06 02:50:44;;;;;;;11.77;5.90;;;;;;;16.91;100.00;95590.66;5000517;28;20302;-72
2023/09/06 02:53:19;;;;;;;10.13;5.93;;;;;;;16.67;100.00;95596.88;5017830;28;20238;-72
2023/09/06 02:55:47;;;;;;;8.70;5.73;;;;;;;16.74;100.00;95589.69;5005610;28;20234;-72
2023/09/06 02:58:15;;;;;;;9.13;6.10;;;;;;;16.74;100.00;95597.59;4997937;28;20226;-72
2023/09/06 03:00:43;;;;;;;8.23;5.97;;;;;;;16.66;100.00;95595.25;5016078;28;20242;-72
2023/09/06 03:03:09;;;;;;;9.13;6.07;;;;;;;16.77;100.00;95602.44;5006812;28;20229;-73
2023/09/06 03:06:17;;;;;;;8.23;5.90;;;;;;;16.74;100.00;95602.91;5000374;28;20234;-73
2023/09/06 03:08:45;;;;;;;9.17;5.93;;;;;;;16.70;100.00;95604.34;4965172;28;20231;-73
2023/09/06 03:11:16;;;;;;;9.13;6.10;;;;;;;16.51;100.00;95608.81;4980880;28;20736;-75
2023/09/06 03:13:43;;;;;;;9.03;5.90;;;;;;;16.49;100.00;95602.09;5019629;28;20230;-74
2023/09/06 03:16:13;;;;;;;7.90;5.87;;;;;;;16.67;100.00;95604.81;5021637;28;20741;-73
2023/09/06 03:18:40;;;;;;;9.10;6.53;;;;;;;16.64;100.00;95605.25;5004315;28;20300;-73
2023/09/06 03:21:06;;;;;;;13.00;6.17;;;;;;;16.64;100.00;95605.25;5021223;28;20245;-73
2023/09/06 03:23:32;;;;;;;10.13;6.80;;;;;;;16.65;100.00;95605.00;5004736;28;20225;-72
2023/09/06 03:25:57;;;;;;;10.70;6.67;;;;;;;16.63;100.00;95607.06;5036126;28;20288;-73
2023/09/06 03:28:31;;;;;;;9.37;6.33;;;;;;;16.71;100.00;95608.63;5007106;28;20238;-73
2023/09/06 03:31:00;;;;;;;14.83;6.73;;;;;;;16.61;100.00;95605.69;5011356;28;20236;-73
2023/09/06 03:33:26;;;;;;;12.93;6.57;;;;;;;16.56;100.00;95605.53;5007287;28;20607;-73
2023/09/06 03:35:52;;;;;;;9.87;6.53;;;;;;;16.55;100.00;95602.06;4990472;28;20245;-73
2023/09/06 03:38:19;;;;;;;9.63;6.60;;;;;;;16.48;100.00;95611.09;5003469;28;20247;-73
2023/09/06 03:40:44;;;;;;;12.93;6.80;;;;;;;16.67;100.00;95608.25;5000619;28;20234;-73
2023/09/06 03:43:45;;;;;;;13.20;6.83;;;;;;;16.71;100.00;95605.97;5029980;28;20268;-73
2023/09/06 03:46:13;;;;;;;9.00;6.40;;;;;;;16.79;100.00;95608.31;4975214;28;20794;-73
2023/09/06 03:48:38;;;;;;;11.00;6.27;;;;;;;16.69;100.00;95600.09;4962332;28;20973;-74
2023/09/06 03:51:04;;;;;;;9.60;6.23;;;;;;;16.74;100.00;95601.03;4982639;28;20235;-79
2023/09/06 03:53:38;;;;;;;11.67;6.47;;;;;;;16.69;100.00;95613.31;4981715;28;20235;-78
2023/09/06 03:56:32;;;;;;;10.83;6.43;;;;;;;16.65;100.00;95620.06;4962770;28;20285;-79
2023/09/06 03:59:02;;;;;;;10.40;6.63;;;;;;;16.68;100.00;95616.97;4980814;28;20607;-79
2023/09/06 04:01:32;;;;;;;9.67;6.60;;;;;;;16.50;100.00;95635.44;4965922;28;20246;-79
2023/09/06 04:04:00;;;;;;;9.57;6.63;;;;;;;16.36;100.00;95628.69;4983187;28;20228;-79
2023/09/06 04:06:28;;;;;;;11.73;6.80;;;;;;;16.51;100.00;95627.31;4976906;28;20604;-79
2023/09/06 04:08:54;;;;;;;11.33;6.87;;;;;;;16.52;100.00;95630.78;4960511;28;20262;-79
2023/09/06 04:11:20;;;;;;;8.80;6.20;;;;;;;16.45;100.00;95622.91;5009340;28;20315;-79
2023/09/06 04:13:46;;;;;;;11.80;6.80;;;;;;;16.58;100.00;95633.34;5042225;28;20233;-78
2023/09/06 04:16:11;;;;;;;9.97;6.57;;;;;;;16.61;100.00;95635.56;5005878;28;20636;-81
2023/09/06 04:18:37;;;;;;;10.03;6.33;;;;;;;16.73;100.00;95627.72;5011813;28;20245;-79
2023/09/06 04:21:08;;;;;;;10.90;6.30;;;;;;;16.66;100.00;95633.06;5003628;28;20628;-80
2023/09/06 04:23:52;;;;;;;7.97;6.20;;;;;;;16.64;100.00;95643.06;5041934;28;20230;-79
2023/09/06 04:26:46;;;;;;;12.80;6.47;;;;;;;16.63;100.00;95635.34;5006529;28;20243;-79
2023/09/06 04:29:12;;;;;;;12.03;6.37;;;;;;;16.68;100.00;95633.66;5015331;28;20319;-77
2023/09/06 04:31:41;;;;;;;9.37;6.07;;;;;;;16.60;100.00;95635.75;5015921;28;20234;-79
2023/09/06 04:34:06;;;;;;;11.87;6.70;;;;;;;16.68;100.00;95636.31;5007938;28;20246;-79
2023/09/06 04:36:36;;;;;;;8.40;6.10;;;;;;;16.71;100.00;95638.50;5002514;28;20248;-79
2023/09/06 04:39:03;;;;;;;11.83;6.90;;;;;;;16.77;100.00;95636.81;5025157;28;20237;-79
2023/09/06 04:41:31;;;;;;;10.93;6.97;;;;;;;16.80;100.00;95637.19;5001091;28;20710;-78
2023/09/06 04:43:56;;;;;;;10.80;7.13;;;;;;;16.82;100.00;95637.78;5037784;28;20265;-79
2023/09/06 04:46:22;;;;;;;13.40;7.90;;;;;;;16.87;100.00;95634.47;4999151;28;20256;-79
2023/09/06 04:48:48;;;;;;;10.83;7.53;;;;;;;16.93;100.00;95646.81;4984752;28;20242;-73
2023/09/06 04:51:14;;;;;;;12.13;7.27;;;;;;;16.94;100.00;95650.25;5022572;28;20740;-73
2023/09/06 04:53:40;;;;;;;12.40;7.63;;;;;;;17.02;100.00;95647.31;5000999;28;20610;-72
2023/09/06 04:56:06;;;;;;;11.03;7.60;;;;;;;17.11;100.00;95643.34;5004547;28;20237;-72
2023/09/06 04:58:33;;;;;;;13.33;7.77;;;;;;;17.12;100.00;95652.91;5002269;28;20230;-73
2023/09/06 05:01:02;;;;;;;14.13;7.73;;;;;;;17.14;100.00;95642.91;4997876;28;20234;-73
2023/09/06 05:03:27;;;;;;;11.10;7.53;;;;;;;17.13;100.00;95652.66;5022133;28;20353;-73
2023/09/06 05:05:53;;;;;;;16.73;10.00;;;;;;;17.13;100.00;95651.84;5020679;28;20230;-73
2023/09/06 05:08:19;;;;;;;12.23;7.97;;;;;;;17.19;100.00;95654.44;4990270;28;20236;-73
2023/09/06 05:10:50;;;;;;;12.60;8.20;;;;;;;17.22;100.00;95656.63;4982477;28;20238;-73
2023/09/06 05:13:15;;;;;;;12.77;8.00;;;;;;;17.18;100.00;95657.28;5015627;28;20253;-73
2023/09/06 05:15:41;;;;;;;10.33;7.63;;;;;;;17.29;100.00;95654.69;5015521;28;20811;-73
2023/09/06 05:18:08;;;;;;;14.17;8.47;;;;;;;17.27;100.00;95653.31;5018178;28;20315;-73
2023/09/06 05:20:35;;;;;;;17.80;10.37;;;;;;;17.25;100.00;95656.19;5007067;28;20245;-74
2023/09/06 05:23:05;;;;;;;20.93;10.97;;;;;;;17.41;100.00;95662.72;5000030;28;20221;-73
2023/09/06 05:25:30;;;;;;;14.53;8.50;;;;;;;17.42;100.00;95661.66;5005560;28;20322;-73
2023/09/06 05:28:08;;;;;;;13.53;8.50;;;;;;;17.48;100.00;95672.16;5022550;28;20234;-72
2023/09/06 05:30:36;;;;;;;13.70;8.03;;;;;;;17.53;100.00;95668.09;5006953;28;20260;-72
2023/09/06 05:33:02;;;;;;;12.47;8.60;;;;;;;17.59;100.00;95675.13;5003958;28;20298;-73
2023/09/06 05:35:28;;;;;;;15.27;8.53;;;;;;;17.65;100.00;95682.19;5016123;28;20237;-73
2023/09/06 05:37:54;;;;;;;13.57;8.07;;;;;;;17.67;100.00;95665.03;5002285;28;20337;-73
2023/09/06 05:40:22;;;;;;;13.47;8.10;;;;;;;17.64;100.00;95670.78;5014442;28;20234;-73
2023/09/06 05:42:49;;;;;;;14.27;8.13;;;;;;;17.78;100.00;95676.69;5022023;28;20272;-73
2023/09/06 05:45:15;;;;;;;12.07;7.10;;;;;;;17.78;100.00;95671.41;4996578;28;20238;-72
2023/09/06 05:47:41;;;;;;;12.93;6.97;;;;;;;17.81;100.00;95673.59;5001916;28;20242;-74
2023/09/06 05:50:06;;;;;;;10.03;6.37;;;;;;;17.79;100.00;95678.31;5022962;28;20948;-72
2023/09/06 05:52:33;;;;;;;13.83;6.73;;;;;;;17.82;100.00;95677.84;5000786;28;20225;-73
2023/09/06 05:54:58;;;;;;;13.57;6.73;;;;;;;17.82;100.00;95678.66;4996859;28;20285;-73
2023/09/06 05:57:25;;;;;;;10.27;6.30;;;;;;;17.86;100.00;95676.38;4989529;28;20352;-72
2023/09/06 05:59:50;;;;;;;10.87;6.60;;;;;;;17.98;100.00;95680.66;5014992;28;20291;-72
2023/09/06 06:02:17;;;;;;;9.50;6.50;;;;;;;18.00;100.00;95681.28;5004587;28;20656;-73
2023/09/06 06:05:03;;;;;;;10.43;6.67;;;;;;;17.99;100.00;95684.13;4996594;28;20242;-74
2023/09/06 06:07:44;;;;;;;10.10;6.70;;;;;;;18.07;100.00;95683.81;5016049;28;20237;-75
2023/09/06 06:10:10;;;;;;;15.30;6.87;;;;;;;18.12;100.00;95691.88;5008547;28;20931;-73
2023/09/06 06:12:39;;;;;;;9.70;6.50;;;;;;;18.20;100.00;95699.50;5003855;28;20237;-74
2023/09/06 06:15:08;;;;;;;10.93;7.10;;;;;;;18.23;100.00;95690.28;5014740;28;20266;-75
2023/09/06 06:17:35;;;;;;;13.27;7.00;;;;;;;18.29;100.00;95687.56;5020854;28;20241;-75
2023/09/06 06:20:00;;;;;;;13.63;6.57;;;;;;;18.38;100.00;95699.44;5002434;28;20230;-75
2023/09/06 06:22:26;;;;;;;11.63;6.60;;;;;;;18.38;100.00;95702.06;4993084;28;20237;-74
2023/09/06 06:24:52;;;;;;;10.37;6.40;;;;;;;18.41;100.00;95701.63;5004684;28;20260;-74
2023/09/06 06:27:18;;;;;;;10.33;6.43;;;;;;;18.47;100.00;95706.03;5011726;28;20238;-74
2023/09/06 06:29:44;;;;;;;12.07;6.17;;;;;;;18.50;100.00;95708.25;5002652;28;20271;-75
2023/09/06 06:32:09;;;;;;;11.83;5.80;;;;;;;18.62;97.11;95711.72;5000688;28;20229;-75
2023/09/06 06:35:12;;;;;;;11.73;6.30;;;;;;;18.64;96.17;95714.13;5014658;28;20222;-74
2023/09/06 06:37:38;;;;;;;10.63;5.77;;;;;;;18.66;97.27;95709.38;5017640;28;20234;-74
2023/09/06 06:40:09;;;;;;;10.33;5.63;;;;;;;18.67;96.89;95718.97;5015592;28;20265;-74
2023/09/06 06:42:34;;;;;;;9.43;5.53;;;;;;;18.70;95.40;95719.31;5001521;28;20261;-72
2023/09/06 06:45:01;;;;;;;9.53;5.57;;;;;;;18.67;97.13;95724.28;5006015;28;20262;-75
2023/09/06 06:47:26;;;;;;;10.43;5.83;;;;;;;18.72;96.03;95722.53;5002714;28;20261;-76
2023/09/06 06:49:52;;;;;;;10.30;5.60;;;;;;;18.69;95.70;95733.63;4999497;28;20914;-75
2023/09/06 06:52:18;;;;;;;13.13;6.30;;;;;;;18.79;95.35;95725.88;5001779;28;20284;-73
2023/09/06 06:54:45;;;;;;;10.47;5.73;;;;;;;18.81;95.97;95730.97;5000531;28;20309;-75
2023/09/06 06:57:11;;;;;;;9.23;5.97;;;;;;;18.88;95.50;95730.84;5001752;28;20230;-73
2023/09/06 06:59:37;;;;;;;9.67;6.03;;;;;;;18.90;95.19;95731.41;5002074;28;20265;-75
2023/09/06 07:02:03;;;;;;;12.17;5.97;;;;;;;18.91;96.05;95730.38;5010123;28;20238;-75
2023/09/06 07:04:29;;;;;;;13.13;6.00;;;;;;;18.88;94.75;95736.16;5000359;28;20235;-75
2023/09/06 07:07:05;;;;;;;13.60;6.10;;;;;;;18.96;94.10;95733.97;5003568;28;20318;-75
2023/09/06 07:09:31;;;;;;;9.67;5.57;;;;;;;19.12;93.97;95735.91;5017377;28;20347;-75
2023/09/06 07:12:00;;;;;;;7.87;5.70;;;;;;;19.16;94.43;95736.25;5020651;28;20296;-77
2023/09/06 07:14:25;;;;;;;13.73;6.13;;;;;;;19.21;94.30;95739.00;4991117;28;20240;-74
2023/09/06 07:16:51;;;;;;;10.50;6.07;;;;;;;19.25;93.75;95737.53;5014640;28;20234;-75
2023/09/06 07:19:16;;;;;;;11.00;5.83;;;;;;;19.24;95.05;95739.38;5002679;28;20303;-75
2023/09/06 07:21:44;;;;;;;12.10;6.07;;;;;;;19.26;93.26;95741.78;5018844;28;20230;-75
2023/09/06 07:24:10;;;;;;;16.50;6.00;;;;;;;19.39;91.74;95745.00;5001177;28;20973;-74
2023/09/06 07:26:35;;;;;;;11.27;5.80;;;;;;;19.40;91.92;95732.56;5001251;28;20230;-74
2023/09/06 07:29:01;;;;;;;9.20;6.13;;;;;;;19.42;91.83;95730.47;5036995;28;20241;-75
2023/09/06 07:31:27;;;;;;;14.90;6.03;;;;;;;19.45;91.59;95730.81;5026106;28;20242;-74
2023/09/06 07:33:52;;;;;;;12.73;5.50;;;;;;;19.55;89.38;95732.06;5009459;28;20238;-74
2023/09/06 07:36:18;;;;;;;13.50;6.00;;;;;;;19.64;90.13;95735.94;5007019;28;20317;-75
2023/09/06 07:38:44;;;;;;;12.30;5.90;;;;;;;19.65;88.82;95733.09;5041015;28;20696;-74
2023/09/06 07:41:11;;;;;;;9.97;6.20;;;;;;;19.66;88.26;95729.38;4998627;28;20280;-74
2023/09/06 07:43:37;;;;;;;9.53;6.10;;;;;;;19.75;87.98;95727.16;5004932;28;20225;-74
2023/09/06 07:46:04;;;;;;;9.10;5.90;;;;;;;19.78;88.39;95729.31;4984651;28;20241;-74
2023/09/06 07:48:30;;;;;;;8.30;5.80;;;;;;;19.84;88.83;95731.88;5006335;28;20364;-76
2023/09/06 07:50:59;;;;;;;8.77;5.70;;;;;;;19.93;86.38;95726.97;5015480;28;20226;-76
2023/09/06 07:53:26;;;;;;;11.87;5.93;;;;;;;19.96;87.42;95724.66;5005143;28;20712;-75
2023/09/06 07:55:51;;;;;;;10.87;6.30;;;;;;;20.06;86.56;95714.19;5003981;28;20231;-77
2023/09/06 07:58:17;;;;;;;10.40;5.90;;;;;;;20.15;86.75;95714.63;5017360;28;20269;-76
2023/09/06 08:01:23;;;;;;;12.47;6.03;;;;;;;20.27;85.33;95723.38;5005499;28;20265;-75
2023/09/06 08:04:11;;;;;;;16.07;6.07;;;;;;;20.35;86.60;95724.84;5022027;28;20666;-75
2023/09/06 08:07:25;;;;;;;9.93;5.93;;;;;;;20.54;86.41;95718.25;5022725;28;20244;-76
2023/09/06 08:10:05;;;;;;;13.60;6.23;;;;;;;20.62;85.34;95729.28;4966897;28;20240;-74
2023/09/06 08:12:34;;;;;;;11.20;6.40;;;;;;;20.51;86.70;95726.69;5039377;28;21019;-75
2023/09/06 08:15:00;;;;;;;8.23;5.90;;;;;;;20.73;85.10;95728.38;5017233;28;20241;-76
2023/09/06 08:17:41;;;;;;;13.33;6.63;;;;;;;20.83;84.08;95720.53;5022741;28;20720;-75
2023/09/06 08:20:30;;;;;;;10.90;6.37;;;;;;;20.85;82.33;95727.50;5008299;28;20594;-76
2023/09/06 08:23:06;;;;;;;10.63;6.23;;;;;;;20.86;83.00;95732.56;5021010;28;20225;-76
2023/09/06 08:25:33;;;;;;;11.87;6.40;;;;;;;20.99;83.43;95732.25;5018721;28;20344;-76
2023/09/06 08:28:37;;;;;;;14.03;6.40;;;;;;;21.09;82.82;95724.41;5005443;28;20254;-76
2023/09/06 08:31:18;;;;;;;11.40;6.17;;;;;;;21.21;82.94;95721.63;4979205;28;20273;-77
2023/09/06 08:33:44;;;;;;;10.93;6.60;;;;;;;21.44;78.62;95730.22;4994643;28;20231;-77
2023/09/06 08:36:28;;;;;;;9.67;6.43;;;;;;;21.62;75.14;95731.75;4963497;28;20243;-77
2023/09/06 08:38:54;;;;;;;9.57;6.30;;;;;;;21.68;75.47;95732.66;4985356;28;20227;-76
2023/09/06 08:41:22;;;;;;;12.80;6.70;;;;;;;21.75;78.08;95722.59;4961700;28;20242;-78
2023/09/06 08:43:48;;;;;;;10.63;6.63;;;;;;;21.83;76.13;95727.50;4979698;28;20234;-77
2023/09/06 08:46:41;;;;;;;13.43;6.80;;;;;;;21.88;75.36;95730.22;4968409;28;20305;-78
2023/09/06 08:49:06;;;;;;;14.50;6.70;;;;;;;21.93;74.20;95736.44;4977553;28;20338;-79
2023/09/06 08:51:35;;;;;;;9.50;6.60;;;;;;;22.04;74.38;95738.13;4968986;28;20235;-79
2023/09/06 08:54:02;;;;;;;12.03;6.70;;;;;;;22.22;73.64;95723.66;4963764;28;20290;-79
2023/09/06 08:56:28;;;;;;;11.30;6.67;;;;;;;22.24;75.83;95728.72;5003831;28;20292;-79
2023/09/06 08:58:54;;;;;;;12.53;6.80;;;;;;;22.41;72.65;95732.91;4995462;28;20626;-77
2023/09/06 09:01:19;;;;;;;11.03;6.50;;;;;;;22.56;71.45;95734.91;5005457;28;20235;-78
2023/09/06 09:03:45;;;;;;;13.37;6.73;;;;;;;22.58;73.59;95735.47;5008034;28;20324;-72
2023/09/06 09:06:10;;;;;;;8.15;6.40;;;;;;;22.57;71.81;95731.19;5036576;28;20230;-73
2023/09/06 09:08:44;;;;;;;8.68;6.60;;;;;;;22.50;70.98;95723.38;4983848;28;20766;-72
2023/09/06 09:11:13;;;;;;;14.87;6.50;;;;;;;22.45;72.40;95723.34;5006870;28;20260;-72
2023/09/06 09:13:39;;;;;;;13.60;6.78;;;;;;;22.32;69.78;95725.63;5018292;28;20226;-72
2023/09/06 09:16:12;;;;;;;10.40;6.33;;;;;;;22.20;71.09;95720.44;4990864;28;20223;-71
2023/09/06 09:18:38;;;;;;;11.37;6.67;;;;;;;22.30;70.97;95717.06;4989097;28;20229;-73
2023/09/06 09:21:04;;;;;;;12.07;6.80;;;;;;;22.25;72.48;95719.69;5008223;28;20998;-74
2023/09/06 09:23:32;;;;;;;12.98;6.70;;;;;;;22.31;71.51;95716.81;4999208;28;20215;-74
2023/09/06 09:26:37;;;;;;;11.82;7.10;;;;;;;22.24;73.39;95724.22;5001421;28;20239;-74
2023/09/06 09:29:06;;;;;;;9.13;6.78;;;;;;;22.25;71.64;95714.34;5016333;28;20236;-74
2023/09/06 09:31:32;;;;;;;9.80;7.23;;;;;;;22.22;71.80;95718.31;5005329;28;20233;-73
2023/09/06 09:33:57;;;;;;;10.10;6.97;;;;;;;22.29;71.64;95723.44;4999990;28;20260;-75
2023/09/06 09:36:24;;;;;;;11.02;7.32;;;;;;;22.33;73.18;95720.03;4995241;28;20242;-71
2023/09/06 09:38:50;;;;;;;16.58;7.70;;;;;;;22.35;72.29;95725.94;5011874;28;20671;-74
2023/09/06 09:41:16;;;;;;;9.63;7.20;;;;;;;22.48;71.52;95716.69;5016272;28;20266;-74
2023/09/06 09:43:41;;;;;;;13.85;6.90;;;;;;;22.58;71.81;95719.44;4990475;28;20395;-75
2023/09/06 09:46:31;;;;;;;13.50;7.35;;;;;;;;;;5004707;28;21063;-73
2023/09/06 09:48:59;;;;;;;11.63;7.18;;;;;;;22.74;70.34;95722.00;5036343;28;20238;-74
2023/09/06 09:51:24;;;;;;;14.80;7.13;;;;;;;22.84;69.41;95717.81;4981432;28;20261;-73
2023/09/06 09:53:50;;;;;;;11.23;7.38;;;;;;;22.81;69.60;95711.09;5035742;28;20257;-74
2023/09/06 09:56:16;;;;;;;13.65;7.03;;;;;;;22.75;70.51;95715.63;4988652;28;20230;-74
2023/09/06 09:58:41;;;;;;;13.77;7.50;;;;;;;22.76;70.69;95714.53;4980379;28;20238;-74
2023/09/06 10:01:08;;;;;;;14.45;7.20;;;;;;;22.77;70.00;95710.03;4998444;28;20280;-75
2023/09/06 10:03:38;;;;;;;10.23;6.97;;;;;;;22.83;71.46;95708.19;4999279;28;20237;-75
2023/09/06 10:06:04;;;;;;;10.90;6.97;;;;;;;22.88;71.12;95711.69;4992765;28;20241;-75
2023/09/06 10:08:59;;;;;;;12.50;7.28;;;;;;;23.02;69.35;95709.41;5000195;28;20234;-74
2023/09/06 10:11:25;;;;;;;10.38;7.18;;;;;;;23.00;69.55;95703.50;4962465;28;20416;-74
2023/09/06 10:13:51;;;;;;;11.10;6.72;;;;;;;23.06;69.53;95697.13;4978131;28;20321;-74
2023/09/06 10:16:18;;;;;;;12.10;7.28;;;;;;;22.97;70.24;95704.03;4960456;28;20313;-73
2023/09/06 10:18:44;;;;;;;13.02;7.20;;;;;;;23.04;67.98;95696.59;4962086;28;20242;-73
2023/09/06 10:21:10;;;;;;;12.07;7.22;;;;;;;23.04;67.05;95704.59;4982325;28;20386;-74
2023/09/06 10:23:40;;;;;;;14.20;7.50;;;;;;;22.97;68.18;95696.81;4960644;28;20870;-74
2023/09/06 10:26:06;;;;;;;14.35;7.18;;;;;;;23.05;67.82;95698.19;4961194;28;20322;-75
2023/09/06 10:29:14;;;;;;;;;;;;;;;;;;;;;
2023/09/06 10:31:49;;;;;;;12.48;7.22;;;;;;;22.96;67.38;95703.22;4967049;28;20700;-74
2023/09/06 10:34:15;;;;;;;14.52;7.28;;;;;;;22.96;67.58;95700.53;4940403;28;20641;-73
2023/09/06 10:36:53;;;;;;;11.95;7.43;;;;;;;22.99;67.93;95701.88;4983614;28;20243;-74
2023/09/06 10:39:34;;;;;;;10.90;7.60;;;;;;;22.95;67.30;95690.91;4993339;28;20242;-73
2023/09/06 10:42:08;;;;;;;15.40;7.40;;;;;;;22.94;68.02;95699.19;4977308;28;20723;-73
2023/09/06 10:45:21;;;;;;;;;;;;;;;;;;;;;
2023/09/06 10:47:47;;;;;;;13.05;7.18;;;;;;;22.96;69.25;95692.53;4999734;28;20226;-73
2023/09/06 10:50:15;;;;;;;11.45;7.45;;;;;;;22.86;68.73;95691.66;4978828;28;20624;-74
2023/09/06 10:52:52;;;;;;;10.82;7.30;;;;;;;22.86;68.30;95696.97;4967692;28;20233;-75
2023/09/06 10:55:30;;;;;;;17.25;7.55;;;;;;;22.87;66.47;95691.41;4980108;28;20230;-74
2023/09/06 10:58:02;;;;;;;10.43;7.32;;;;;;;22.92;69.63;95694.13;4998910;28;20238;-75
2023/09/06 11:00:32;;;;;;;15.18;7.30;;;;;;;22.88;71.10;95692.22;5004148;28;20234;-74
2023/09/06 11:03:19;;;;;;;12.68;7.25;;;;;;;22.80;71.21;95690.81;5005560;28;20325;-74
2023/09/06 11:05:54;;;;;;;11.23;7.20;;;;;;;22.75;71.20;95690.78;4999665;28;20237;-74
2023/09/06 11:08:24;;;;;;;14.05;7.10;;;;;;;22.75;71.76;95690.78;4992943;28;20872;-74
2023/09/06 11:10:50;;;;;;;12.65;7.55;;;;;;;22.74;72.57;95689.97;5002333;28;20239;-75
2023/09/06 11:13:15;;;;;;;10.95;7.32;;;;;;;22.73;72.41;95693.72;4997959;28;20294;-73
2023/09/06 11:15:41;;;;;;;12.13;7.25;;;;;;;22.74;72.64;95687.31;5005362;28;20248;-75
2023/09/06 11:21:36;;;;;;;11.02;7.10;;;;;;;22.70;72.32;95678.22;4960703;28;20236;-75
2023/09/06 11:24:02;;;;;;;10.85;7.10;;;;;;;22.73;72.03;95679.56;5006199;28;20293;-73
2023/09/06 11:27:03;;;;;;;12.07;7.25;;;;;;;22.74;72.57;95679.31;5017878;28;20226;-75
2023/09/06 11:29:30;;;;;;;12.13;7.15;;;;;;;22.77;72.88;95677.97;4956674;28;20240;-75
2023/09/06 11:32:12;;;;;;;10.98;7.13;;;;;;;22.87;71.47;95674.56;4991015;28;20237;-74
2023/09/06 11:34:44;;;;;;;13.48;7.50;;;;;;;22.90;72.45;95672.22;4992411;28;20234;-76
2023/09/06 11:37:12;;;;;;;18.63;7.28;;;;;;;22.90;72.26;95669.53;4991228;28;20278;-74
2023/09/06 11:39:46;;;;;;;13.13;7.25;;;;;;;22.91;71.46;95670.31;4982157;28;20245;-74
2023/09/06 11:42:16;;;;;;;12.50;7.40;;;;;;;22.92;71.49;95666.59;5007782;28;20273;-77
2023/09/06 11:44:50;;;;;;;11.73;6.93;;;;;;;22.88;71.53;95670.84;4995320;28;20392;-75
2023/09/06 11:47:34;;;;;;;10.85;6.78;;;;;;;22.81;70.58;95662.28;5000882;28;20814;-74
2023/09/06 11:52:56;;;;;;;11.70;6.82;;;;;;;22.76;71.53;95657.66;4965610;28;20337;-75
2023/09/06 11:55:47;;;;;;;10.20;6.70;;;;;;;22.64;72.17;95663.22;5008804;28;20378;-73